Time;durP1;ratioP1;P1;durP2;ratioP2;P2;SDS_P1;SDS_P2;PMS_P1;PMS_P2;Temp;Humidity;BMP_temperature;BMP_pressure;BME280_temperature;BME280_humidity;BME280_pressure;Samples;Min_cycle;Max_cycle;Signal;HPM_P1;HPM_P2
2023/05/08 00:00:03;;;;;;;11.45;10.25;;;15.70;99.90;;;;;;4870381;29;20037;-88
2023/05/08 00:02:29;;;;;;;11.85;10.07;;;15.60;99.90;;;;;;4861388;29;20045;-88
2023/05/08 00:04:55;;;;;;;11.23;9.57;;;15.60;99.90;;;;;;4861585;29;20494;-89
2023/05/08 00:07:21;;;;;;;12.82;10.80;;;15.60;99.90;;;;;;4877483;29;20040;-89
2023/05/08 00:09:46;;;;;;;12.32;10.27;;;15.60;99.90;;;;;;4857727;29;20514;-87
2023/05/08 00:12:12;;;;;;;13.25;10.80;;;15.60;99.90;;;;;;4862241;29;20100;-89
2023/05/08 00:14:38;;;;;;;11.52;10.32;;;15.60;99.90;;;;;;4861448;29;20037;-88
2023/05/08 00:17:03;;;;;;;12.30;11.00;;;15.60;99.90;;;;;;4877855;29;20041;-88
2023/05/08 00:19:29;;;;;;;11.93;10.73;;;15.50;99.90;;;;;;4858429;29;20072;-89
2023/05/08 00:21:55;;;;;;;12.40;11.10;;;15.50;99.90;;;;;;4857674;29;20049;-88
2023/05/08 00:24:20;;;;;;;13.30;11.57;;;15.50;99.90;;;;;;4879002;29;20044;-89
2023/05/08 00:26:46;;;;;;;11.35;10.20;;;15.40;99.90;;;;;;4879004;29;20458;-87
2023/05/08 00:29:12;;;;;;;14.85;11.68;;;15.40;99.90;;;;;;4862114;29;20136;-89
2023/05/08 00:31:37;;;;;;;12.13;10.88;;;15.40;99.90;;;;;;4879384;29;20068;-90
2023/05/08 00:34:03;;;;;;;13.85;11.55;;;15.40;99.90;;;;;;4881536;29;20060;-89
2023/05/08 00:36:29;;;;;;;12.52;11.00;;;15.30;99.90;;;;;;4893221;29;20072;-89
2023/05/08 00:38:54;;;;;;;12.60;11.30;;;15.30;99.90;;;;;;4874712;29;20052;-89
2023/05/08 00:41:20;;;;;;;12.48;11.18;;;15.20;99.90;;;;;;4888825;29;20051;-88
2023/05/08 00:43:46;;;;;;;12.13;10.82;;;15.30;99.90;;;;;;4896882;29;20044;-88
2023/05/08 00:46:12;;;;;;;12.52;10.88;;;15.20;99.90;;;;;;4877922;29;20055;-88
2023/05/08 00:48:39;;;;;;;12.88;11.32;;;15.20;99.90;;;;;;4880709;29;20465;-88
2023/05/08 00:51:07;;;;;;;14.60;12.10;;;15.20;99.90;;;;;;4891261;29;20047;-88
2023/05/08 00:53:37;;;;;;;12.25;10.95;;;15.20;99.90;;;;;;4879088;29;20049;-88
2023/05/08 00:56:04;;;;;;;13.40;12.10;;;15.10;99.90;;;;;;4867420;29;20526;-88
2023/05/08 00:58:31;;;;;;;13.52;12.07;;;15.10;99.90;;;;;;4872139;29;20049;-88
2023/05/08 01:00:58;;;;;;;13.05;11.60;;;15.10;99.90;;;;;;4881260;29;20041;-88
2023/05/08 01:03:24;;;;;;;13.80;12.02;;;15.10;99.90;;;;;;4861799;29;20085;-88
2023/05/08 01:05:50;;;;;;;13.57;12.18;;;15.10;99.90;;;;;;4863987;29;20486;-88
2023/05/08 01:08:16;;;;;;;13.00;11.45;;;15.10;99.90;;;;;;4862095;29;20094;-87
2023/05/08 01:11:05;;;;;;;14.13;11.77;;;15.00;99.90;;;;;;4879297;29;20737;-88
2023/05/08 01:13:58;;;;;;;12.95;11.55;;;15.00;99.90;;;;;;4859455;29;20053;-88
2023/05/08 01:16:27;;;;;;;15.37;12.30;;;14.90;99.90;;;;;;4871845;29;20057;-88
2023/05/08 01:19:05;;;;;;;13.48;11.80;;;14.90;99.90;;;;;;4867545;29;20324;-88
2023/05/08 01:21:42;;;;;;;14.00;12.48;;;14.90;99.90;;;;;;4880938;29;20143;-88
2023/05/08 01:24:36;;;;;;;12.75;11.45;;;14.80;99.90;;;;;;4871891;29;20486;-88
2023/05/08 01:27:16;;;;;;;;;;;14.80;99.90;;;;;;4885223;29;20056;-88
2023/05/08 01:30:18;;;;;;;13.02;11.73;;;14.70;99.90;;;;;;4862227;29;19923;-89
2023/05/08 01:32:54;;;;;;;14.45;12.88;;;14.70;99.90;;;;;;4877133;29;20128;-88
2023/05/08 01:35:31;;;;;;;14.52;13.02;;;14.70;99.90;;;;;;4862246;29;20053;-88
2023/05/08 01:38:06;;;;;;;14.65;12.43;;;14.70;99.90;;;;;;4891230;29;20049;-88
2023/05/08 01:40:47;;;;;;;14.23;12.73;;;14.70;99.90;;;;;;4881553;29;20037;-88
2023/05/08 01:43:27;;;;;;;13.80;12.40;;;14.70;99.90;;;;;;4897348;29;20044;-88
2023/05/08 01:45:55;;;;;;;14.75;13.25;;;14.70;99.90;;;;;;4881502;29;20047;-88
2023/05/08 01:48:37;;;;;;;14.68;13.05;;;14.60;99.90;;;;;;4867241;29;20053;-88
2023/05/08 01:51:13;;;;;;;14.60;13.10;;;14.60;99.90;;;;;;4882627;29;20048;-88
2023/05/08 01:53:43;;;;;;;14.15;12.35;;;14.60;99.90;;;;;;4882881;29;20393;-88
2023/05/08 01:56:14;;;;;;;14.02;12.55;;;14.60;99.90;;;;;;4893660;29;20108;-88
2023/05/08 01:58:41;;;;;;;14.18;12.73;;;14.50;99.90;;;;;;4880910;29;20558;-88
2023/05/08 02:01:11;;;;;;;14.20;12.70;;;14.60;99.90;;;;;;4875022;29;20048;-87
2023/05/08 02:03:40;;;;;;;14.57;12.25;;;14.50;99.90;;;;;;4881292;29;20072;-88
2023/05/08 02:06:08;;;;;;;14.25;12.75;;;14.50;99.90;;;;;;4890074;29;20049;-88
2023/05/08 02:08:35;;;;;;;14.30;12.80;;;14.50;99.90;;;;;;4870592;29;20053;-87
2023/05/08 02:11:02;;;;;;;15.45;13.65;;;14.50;99.90;;;;;;4879863;29;20044;-88
2023/05/08 02:13:30;;;;;;;14.10;12.65;;;14.40;99.90;;;;;;4869287;29;20060;-88
2023/05/08 02:15:57;;;;;;;14.23;12.73;;;14.40;99.90;;;;;;4887254;29;20413;-87
2023/05/08 02:18:24;;;;;;;15.32;13.65;;;14.40;99.90;;;;;;4887922;29;20053;-88
2023/05/08 02:20:51;;;;;;;14.80;12.90;;;14.40;99.90;;;;;;4864257;29;20041;-89
2023/05/08 02:23:19;;;;;;;14.50;13.00;;;14.40;99.90;;;;;;4870014;29;20501;-89
2023/05/08 02:25:46;;;;;;;13.90;12.30;;;14.30;99.90;;;;;;4885265;29;20517;-88
2023/05/08 02:28:14;;;;;;;14.68;13.18;;;14.30;99.90;;;;;;4872446;29;20149;-89
2023/05/08 02:30:42;;;;;;;14.38;12.90;;;14.20;99.90;;;;;;4885965;29;20058;-88
2023/05/08 02:33:09;;;;;;;13.15;11.75;;;14.20;99.90;;;;;;4890421;29;20057;-88
2023/05/08 02:35:36;;;;;;;14.93;13.23;;;14.20;99.90;;;;;;4864006;29;20053;-88
2023/05/08 02:38:09;;;;;;;14.05;12.55;;;14.10;99.90;;;;;;4867434;29;20095;-87
2023/05/08 02:40:35;;;;;;;;;;;14.10;99.90;;;;;;4864889;29;20045;-88
2023/05/08 02:43:00;;;;;;;14.68;12.82;;;14.00;99.90;;;;;;4881796;29;19979;-89
2023/05/08 02:45:35;;;;;;;15.30;13.07;;;13.90;99.90;;;;;;4883045;29;20056;-88
2023/05/08 02:48:23;;;;;;;13.82;12.43;;;13.90;99.90;;;;;;4894227;29;20080;-89
2023/05/08 02:51:36;;;;;;;14.55;13.05;;;13.90;99.90;;;;;;4878940;29;20052;-88
2023/05/08 02:54:01;;;;;;;14.07;12.57;;;13.80;99.90;;;;;;4871196;29;20057;-88
2023/05/08 02:56:36;;;;;;;13.50;12.10;;;13.70;99.90;;;;;;4889681;29;20105;-88
2023/05/08 02:59:15;;;;;;;15.63;13.68;;;13.70;99.90;;;;;;4886276;29;20446;-90
2023/05/08 03:01:52;;;;;;;13.60;12.20;;;13.70;99.90;;;;;;4893676;29;20047;-90
2023/05/08 03:04:31;;;;;;;13.80;12.40;;;13.60;99.90;;;;;;4868166;29;20060;-89
2023/05/08 03:06:58;;;;;;;14.25;12.50;;;13.60;99.90;;;;;;4881336;29;20045;-89
2023/05/08 03:09:30;;;;;;;14.65;13.07;;;13.60;99.90;;;;;;4880615;29;20224;-89
2023/05/08 03:12:05;;;;;;;14.73;12.75;;;13.50;99.90;;;;;;4880303;29;20132;-90
2023/05/08 03:14:36;;;;;;;14.93;13.13;;;13.50;99.90;;;;;;4897037;29;20089;-89
2023/05/08 03:17:07;;;;;;;16.40;13.02;;;13.40;99.90;;;;;;4867077;29;20053;-89
2023/05/08 03:19:38;;;;;;;15.15;13.55;;;13.40;99.90;;;;;;4894109;29;20210;-89
2023/05/08 03:22:05;;;;;;;14.85;12.90;;;13.40;99.90;;;;;;4882703;29;20048;-89
2023/05/08 03:24:35;;;;;;;14.52;13.05;;;13.40;99.90;;;;;;4877387;29;20052;-89
2023/05/08 03:27:03;;;;;;;14.30;12.75;;;13.30;99.90;;;;;;4870280;29;20169;-89
2023/05/08 03:29:30;;;;;;;14.68;13.10;;;13.30;99.90;;;;;;4875651;29;20062;-89
2023/05/08 03:31:59;;;;;;;14.60;13.10;;;13.30;99.90;;;;;;4883695;29;20084;-89
2023/05/08 03:34:25;;;;;;;14.88;13.30;;;13.20;99.90;;;;;;4890907;29;20056;-89
2023/05/08 03:36:51;;;;;;;14.90;13.30;;;13.20;99.90;;;;;;4898804;29;20892;-88
2023/05/08 03:39:17;;;;;;;15.32;13.73;;;13.20;99.90;;;;;;4881619;29;20045;-88
2023/05/08 03:41:44;;;;;;;14.95;13.43;;;13.20;99.90;;;;;;4863342;29;20052;-88
2023/05/08 03:44:10;;;;;;;13.90;12.43;;;13.20;99.90;;;;;;4870251;29;20156;-89
2023/05/08 03:46:37;;;;;;;14.38;12.63;;;13.20;99.90;;;;;;4870243;29;20065;-89
2023/05/08 03:49:04;;;;;;;15.27;13.68;;;13.10;99.90;;;;;;4886338;29;20041;-88
2023/05/08 03:51:31;;;;;;;15.40;13.50;;;13.10;99.90;;;;;;4881711;29;20131;-88
2023/05/08 03:53:56;;;;;;;14.32;12.90;;;13.10;99.90;;;;;;4877421;29;20485;-89
2023/05/08 03:56:22;;;;;;;14.27;12.77;;;13.00;99.90;;;;;;4878793;29;20197;-88
2023/05/08 03:58:48;;;;;;;14.82;13.20;;;13.00;99.90;;;;;;4879827;29;20401;-88
2023/05/08 04:01:30;;;;;;;14.57;13.07;;;13.00;99.90;;;;;;4880003;29;20434;-88
2023/05/08 04:04:11;;;;;;;14.07;12.70;;;13.00;99.90;;;;;;4862313;29;20044;-89
2023/05/08 04:06:44;;;;;;;14.13;12.70;;;12.90;99.90;;;;;;4878405;29;20041;-88
2023/05/08 04:09:23;;;;;;;14.77;12.40;;;12.90;99.90;;;;;;4861256;29;20049;-88
2023/05/08 04:11:49;;;;;;;14.70;13.20;;;12.90;99.90;;;;;;4863364;29;20049;-87
2023/05/08 04:14:18;;;;;;;14.68;12.93;;;12.90;99.90;;;;;;4879006;29;20500;-89
2023/05/08 04:16:49;;;;;;;14.25;12.75;;;12.90;99.90;;;;;;4888740;29;20044;-89
2023/05/08 04:19:23;;;;;;;14.70;13.07;;;12.80;99.90;;;;;;4898798;29;20048;-88
2023/05/08 04:21:50;;;;;;;14.75;13.25;;;12.80;99.90;;;;;;4887705;29;20041;-88
2023/05/08 04:24:17;;;;;;;15.35;13.75;;;12.70;99.90;;;;;;4863200;29;20093;-89
2023/05/08 04:26:44;;;;;;;15.73;14.10;;;12.70;99.90;;;;;;4881166;29;20509;-86
2023/05/08 04:29:10;;;;;;;14.88;13.38;;;12.70;99.90;;;;;;4862884;29;20052;-91
2023/05/08 04:31:37;;;;;;;16.42;13.18;;;12.70;99.90;;;;;;4867121;29;20063;-86
2023/05/08 04:34:03;;;;;;;14.93;13.30;;;12.70;99.90;;;;;;4863146;29;20060;-89
2023/05/08 04:36:32;;;;;;;15.13;13.52;;;12.60;99.90;;;;;;4877611;29;20115;-88
2023/05/08 04:38:58;;;;;;;15.75;13.27;;;12.60;99.90;;;;;;4877768;29;20135;-88
2023/05/08 04:41:25;;;;;;;14.80;13.30;;;12.60;99.90;;;;;;4872101;29;20133;-87
2023/05/08 04:43:50;;;;;;;14.75;13.07;;;12.60;99.90;;;;;;4870224;29;20060;-85
2023/05/08 04:46:16;;;;;;;14.43;12.52;;;12.60;99.90;;;;;;4863334;29;20045;-85
2023/05/08 04:48:41;;;;;;;15.52;13.05;;;12.60;99.90;;;;;;4861774;29;20060;-85
2023/05/08 04:51:07;;;;;;;15.52;13.30;;;12.50;99.90;;;;;;4862946;29;20047;-85
2023/05/08 04:53:33;;;;;;;17.77;12.85;;;12.50;99.90;;;;;;4878921;29;20049;-85
2023/05/08 04:55:58;;;;;;;18.88;13.23;;;12.50;99.90;;;;;;4878427;29;20093;-85
2023/05/08 04:58:24;;;;;;;15.57;13.65;;;12.50;99.90;;;;;;4862451;29;20057;-85
2023/05/08 05:00:49;;;;;;;14.98;13.38;;;12.50;99.90;;;;;;4878879;29;20073;-85
2023/05/08 05:03:15;;;;;;;14.38;12.43;;;12.40;99.90;;;;;;4860941;29;20101;-85
2023/05/08 05:05:41;;;;;;;13.80;12.35;;;12.40;99.90;;;;;;4862125;29;20053;-85
2023/05/08 05:08:06;;;;;;;16.27;12.65;;;12.40;99.90;;;;;;4862116;29;20049;-85
2023/05/08 05:10:32;;;;;;;14.68;12.52;;;12.40;99.90;;;;;;4878076;29;20053;-85
2023/05/08 05:12:57;;;;;;;13.70;12.02;;;12.40;99.90;;;;;;4879046;29;20045;-85
2023/05/08 05:15:23;;;;;;;14.45;12.35;;;12.30;99.90;;;;;;4865941;29;20063;-85
2023/05/08 05:17:49;;;;;;;14.05;12.18;;;12.30;99.90;;;;;;4881601;29;20053;-85
2023/05/08 05:20:14;;;;;;;14.75;13.25;;;12.30;99.90;;;;;;4866081;29;20140;-85
2023/05/08 05:22:40;;;;;;;13.73;11.80;;;12.30;99.90;;;;;;4882481;29;20053;-85
2023/05/08 05:25:06;;;;;;;13.80;12.30;;;12.30;99.90;;;;;;4865217;29;20052;-86
2023/05/08 05:27:35;;;;;;;14.02;12.52;;;12.30;99.90;;;;;;4865850;29;20139;-85
2023/05/08 05:30:01;;;;;;;14.07;11.77;;;12.20;99.90;;;;;;4866841;29;20048;-85
2023/05/08 05:32:27;;;;;;;14.70;12.02;;;12.20;99.90;;;;;;4881500;29;20065;-85
2023/05/08 05:34:53;;;;;;;14.50;13.00;;;12.20;99.90;;;;;;4882586;29;20120;-85
2023/05/08 05:37:18;;;;;;;14.35;12.07;;;12.20;99.90;;;;;;4882384;29;20048;-85
2023/05/08 05:39:44;;;;;;;14.00;11.63;;;12.20;99.90;;;;;;4882245;29;20056;-84
2023/05/08 05:42:10;;;;;;;13.75;12.20;;;12.20;99.90;;;;;;4882108;29;20045;-85
2023/05/08 05:44:36;;;;;;;13.60;11.95;;;12.30;99.90;;;;;;4865646;29;20063;-85
2023/05/08 05:47:03;;;;;;;13.30;11.93;;;12.30;99.90;;;;;;4864689;29;20070;-86
2023/05/08 05:49:29;;;;;;;13.23;11.65;;;12.20;99.90;;;;;;4865363;29;20041;-86
2023/05/08 05:51:55;;;;;;;14.35;12.85;;;12.20;99.90;;;;;;4881124;29;20052;-86
2023/05/08 05:54:21;;;;;;;14.07;12.57;;;12.30;99.90;;;;;;4865359;29;20049;-85
2023/05/08 05:56:47;;;;;;;14.60;12.38;;;12.30;99.90;;;;;;4864940;29;20154;-84
2023/05/08 05:59:12;;;;;;;13.75;11.68;;;12.30;99.90;;;;;;4864586;29;20041;-85
2023/05/08 06:01:38;;;;;;;14.32;11.75;;;12.40;99.90;;;;;;4881499;29;20402;-85
2023/05/08 06:04:04;;;;;;;13.68;12.18;;;12.40;99.90;;;;;;4882076;29;20053;-85
2023/05/08 06:06:30;;;;;;;12.57;11.27;;;12.40;99.90;;;;;;4881370;29;20049;-84
2023/05/08 06:08:56;;;;;;;14.85;12.75;;;12.50;99.90;;;;;;4881501;29;20060;-85
2023/05/08 06:11:22;;;;;;;12.43;11.10;;;12.50;99.90;;;;;;4881718;29;20402;-85
2023/05/08 06:13:47;;;;;;;12.52;10.77;;;12.50;99.90;;;;;;4880949;29;20112;-84
2023/05/08 06:16:14;;;;;;;13.52;11.73;;;12.50;99.90;;;;;;4865211;29;20053;-85
2023/05/08 06:18:40;;;;;;;12.90;11.43;;;12.60;99.90;;;;;;4864708;29;20057;-86
2023/05/08 06:21:06;;;;;;;13.23;11.15;;;12.60;99.90;;;;;;4863950;29;20489;-85
2023/05/08 06:23:31;;;;;;;12.85;11.50;;;12.70;99.90;;;;;;4881581;29;20101;-86
2023/05/08 06:25:57;;;;;;;12.90;11.52;;;12.80;99.90;;;;;;4881643;29;20482;-85
2023/05/08 06:28:24;;;;;;;12.80;11.50;;;12.80;99.90;;;;;;4864359;29;20064;-85
2023/05/08 06:30:50;;;;;;;12.82;11.52;;;12.90;99.90;;;;;;4881983;29;20055;-84
2023/05/08 06:33:17;;;;;;;12.70;11.40;;;12.90;99.90;;;;;;4882434;29;20097;-84
2023/05/08 06:35:46;;;;;;;15.75;13.15;;;13.10;99.90;;;;;;4864171;29;20052;-85
2023/05/08 06:38:13;;;;;;;13.00;11.60;;;13.10;99.90;;;;;;4880785;29;20088;-84
2023/05/08 06:40:45;;;;;;;13.52;12.07;;;13.20;99.90;;;;;;4865330;29;20096;-84
2023/05/08 06:43:12;;;;;;;13.10;11.73;;;13.30;99.90;;;;;;4882265;29;20049;-84
2023/05/08 06:45:38;;;;;;;12.70;11.20;;;13.40;99.90;;;;;;4852644;29;20057;-84
2023/05/08 06:48:04;;;;;;;13.13;11.02;;;13.50;99.90;;;;;;4854781;29;20493;-84
2023/05/08 06:50:30;;;;;;;12.35;10.65;;;13.50;99.90;;;;;;4881448;29;20052;-84
2023/05/08 06:52:55;;;;;;;11.77;10.57;;;13.60;99.90;;;;;;4864428;29;20504;-84
2023/05/08 06:55:21;;;;;;;11.95;10.65;;;13.60;99.90;;;;;;4881039;29;20045;-85
2023/05/08 06:57:47;;;;;;;12.00;9.93;;;13.70;99.90;;;;;;4881711;29;20614;-83
2023/05/08 07:00:13;;;;;;;12.35;11.05;;;13.70;99.90;;;;;;4882519;29;20048;-84
2023/05/08 07:02:38;;;;;;;11.40;10.20;;;13.70;99.90;;;;;;4863908;29;20482;-84
2023/05/08 07:05:04;;;;;;;12.60;10.02;;;13.80;99.90;;;;;;4893916;29;20053;-85
2023/05/08 07:07:30;;;;;;;11.75;10.52;;;13.80;99.90;;;;;;4864156;29;20100;-84
2023/05/08 07:09:55;;;;;;;12.82;11.10;;;13.80;99.90;;;;;;4879683;29;20053;-83
2023/05/08 07:12:21;;;;;;;11.00;9.90;;;13.90;99.90;;;;;;4883543;29;20053;-84
2023/05/08 07:14:47;;;;;;;12.30;10.60;;;13.90;99.90;;;;;;4880722;29;20053;-85
2023/05/08 07:17:12;;;;;;;12.10;10.80;;;13.90;99.90;;;;;;4880223;29;20051;-86
2023/05/08 07:19:38;;;;;;;11.80;10.32;;;13.90;99.90;;;;;;4880071;29;20041;-85
2023/05/08 07:22:04;;;;;;;13.63;10.85;;;14.00;99.90;;;;;;4880784;29;20093;-85
2023/05/08 07:24:31;;;;;;;12.32;11.07;;;14.10;99.90;;;;;;4880246;29;20085;-87
2023/05/08 07:26:58;;;;;;;12.43;11.13;;;14.10;99.90;;;;;;4880576;29;20049;-86
2023/05/08 07:29:24;;;;;;;12.27;10.60;;;14.10;99.90;;;;;;4880531;29;20557;-86
2023/05/08 07:31:50;;;;;;;11.50;10.30;;;14.10;99.90;;;;;;4879401;29;20061;-86
2023/05/08 07:34:17;;;;;;;12.05;10.85;;;14.20;99.90;;;;;;4880232;29;20077;-86
2023/05/08 07:36:43;;;;;;;12.60;11.00;;;14.30;99.90;;;;;;4879392;29;20152;-86
2023/05/08 07:39:09;;;;;;;13.73;12.18;;;14.30;99.90;;;;;;4863059;29;20486;-86
2023/05/08 07:41:35;;;;;;;15.15;11.65;;;14.30;99.90;;;;;;4863520;29;20080;-86
2023/05/08 07:44:02;;;;;;;13.00;11.70;;;14.30;99.90;;;;;;4880197;29;20088;-86
2023/05/08 07:46:27;;;;;;;12.70;11.40;;;14.30;99.90;;;;;;4862889;29;20137;-86
2023/05/08 07:48:53;;;;;;;13.25;11.45;;;14.40;99.90;;;;;;4879605;29;20472;-86
2023/05/08 07:51:19;;;;;;;12.88;11.57;;;14.40;99.90;;;;;;4879451;29;20041;-84
2023/05/08 07:53:44;;;;;;;15.95;12.18;;;14.50;99.90;;;;;;4863671;29;20052;-85
2023/05/08 07:56:10;;;;;;;12.90;11.60;;;14.60;99.90;;;;;;4880151;29;20049;-86
2023/05/08 07:58:36;;;;;;;11.63;10.40;;;14.60;99.90;;;;;;4878982;29;20421;-87
2023/05/08 08:01:02;;;;;;;12.77;11.23;;;14.60;99.90;;;;;;4863661;29;20052;-86
2023/05/08 08:03:28;;;;;;;13.43;12.02;;;14.60;99.90;;;;;;4863276;29;20041;-87
2023/05/08 08:05:54;;;;;;;12.93;11.63;;;14.70;99.90;;;;;;4878912;29;20049;-86
2023/05/08 08:08:20;;;;;;;13.75;12.30;;;14.80;99.90;;;;;;4863292;29;20120;-87
2023/05/08 08:10:46;;;;;;;12.82;11.48;;;14.80;99.90;;;;;;4863014;29;20052;-87
2023/05/08 08:13:11;;;;;;;13.68;10.85;;;14.80;99.90;;;;;;4879353;29;20044;-87
2023/05/08 08:15:37;;;;;;;12.30;10.80;;;14.90;99.90;;;;;;4862674;29;20053;-86
2023/05/08 08:18:02;;;;;;;12.48;11.18;;;14.90;99.90;;;;;;4879428;29;20060;-88
2023/05/08 08:20:28;;;;;;;13.02;11.73;;;15.00;99.90;;;;;;4879290;29;20097;-86
2023/05/08 08:22:54;;;;;;;14.35;10.90;;;15.10;99.90;;;;;;4862892;29;20069;-86
2023/05/08 08:25:19;;;;;;;14.85;11.55;;;15.20;99.90;;;;;;4862427;29;20124;-89
2023/05/08 08:27:45;;;;;;;14.00;11.98;;;15.30;99.90;;;;;;4862301;29;20185;-88
2023/05/08 08:30:11;;;;;;;15.30;11.77;;;15.40;99.90;;;;;;4862903;29;20520;-89
2023/05/08 08:32:36;;;;;;;12.93;11.63;;;15.50;99.90;;;;;;4862362;29;20080;-90
2023/05/08 08:35:05;;;;;;;13.25;11.82;;;15.70;99.90;;;;;;4879256;29;20516;-91
2023/05/08 08:37:31;;;;;;;12.52;10.93;;;15.80;99.90;;;;;;4879603;29;20112;-89
2023/05/08 08:39:56;;;;;;;12.25;11.02;;;15.90;99.90;;;;;;4862596;29;20044;-89
2023/05/08 08:42:25;;;;;;;16.95;12.15;;;15.90;99.90;;;;;;4862104;29;20053;-89
2023/05/08 08:44:54;;;;;;;13.57;11.68;;;16.00;99.90;;;;;;4862668;29;20049;-89
2023/05/08 08:51:00;;;;;;;12.70;11.40;;;16.20;99.40;;;;;;4858319;29;20049;-89
2023/05/08 08:53:53;;;;;;;15.17;12.03;;;16.30;99.90;;;;;;4843290;29;20113;-88
2023/05/08 08:56:22;;;;;;;13.07;11.73;;;16.30;99.10;;;;;;4859063;29;20057;-89
2023/05/08 09:04:30;;;;;;;13.68;11.73;;;16.60;98.60;;;;;;4862944;29;20052;-89
2023/05/08 09:07:09;;;;;;;;;;;;;;;;;;;;;
2023/05/08 09:10:14;;;;;;;13.15;11.65;;;16.80;98.60;;;;;;4876131;29;20059;-90
2023/05/08 09:12:40;;;;;;;13.23;11.93;;;16.80;98.60;;;;;;4862108;29;20064;-89
2023/05/08 09:15:06;;;;;;;12.65;11.35;;;16.90;98.40;;;;;;4862745;29;20377;-88
2023/05/08 09:17:40;;;;;;;14.65;11.77;;;17.00;98.80;;;;;;4861611;29;20080;-90
2023/05/08 09:20:10;;;;;;;13.15;11.75;;;17.10;98.50;;;;;;4879361;29;20100;-87
2023/05/08 09:23:07;;;;;;;;;;;;;;;;;;;;;
2023/05/08 09:25:47;;;;;;;14.13;10.88;;;17.30;99.30;;;;;;4864534;29;20230;-95
2023/05/08 09:28:23;;;;;;;13.05;11.15;;;17.40;99.30;;;;;;4880026;29;20045;-95
2023/05/08 09:30:55;;;;;;;12.57;11.27;;;17.50;98.00;;;;;;4864054;29;20045;-95
2023/05/08 09:33:22;;;;;;;11.40;10.30;;;17.60;98.30;;;;;;4880782;29;20096;-95
2023/05/08 09:35:48;;;;;;;12.52;10.68;;;17.70;98.70;;;;;;4864541;29;20105;-96
2023/05/08 09:38:35;;;;;;;12.98;11.57;;;17.80;98.60;;;;;;4863424;29;20486;-95
2023/05/08 09:41:14;;;;;;;12.65;11.35;;;17.90;97.10;;;;;;4863816;29;20049;-95
2023/05/08 09:43:41;;;;;;;12.27;10.98;;;18.00;96.90;;;;;;4863929;29;20144;-95
2023/05/08 09:46:22;;;;;;;15.23;11.32;;;18.00;97.50;;;;;;4863458;29;20049;-94
2023/05/08 09:48:52;;;;;;;12.90;10.75;;;18.10;97.30;;;;;;4879921;29;20128;-94
2023/05/08 09:51:18;;;;;;;13.60;12.18;;;18.20;97.50;;;;;;4880081;29;20144;-95
2023/05/08 09:53:44;;;;;;;13.60;11.98;;;18.30;97.40;;;;;;4863514;29;20649;-95
2023/05/08 09:56:10;;;;;;;13.38;12.07;;;18.40;96.70;;;;;;4862796;29;20834;-95
2023/05/08 10:08:36;;;;;;;14.13;12.45;;;18.60;96.80;;;;;;4869060;29;20117;-89
2023/05/08 10:11:21;;;;;;;14.50;12.13;;;18.70;96.30;;;;;;4863347;29;20154;-88
2023/05/08 10:13:52;;;;;;;13.27;11.88;;;18.80;96.60;;;;;;4856400;29;20053;-89
2023/05/08 10:16:19;;;;;;;13.90;12.38;;;18.90;96.20;;;;;;4881726;29;20045;-89
2023/05/08 10:19:28;;;;;;;15.45;12.07;;;19.00;96.50;;;;;;4881819;29;20049;-89
2023/05/08 10:21:56;;;;;;;13.15;11.80;;;19.10;96.30;;;;;;4860325;29;20506;-89
2023/05/08 10:25:05;;;;;;;;;;;;;;;;;;;;;
2023/05/08 10:27:56;;;;;;;;;;;;;;;;;;;;;
2023/05/08 10:31:39;;;;;;;;;;;;;;;;;;;;;
2023/05/08 10:34:52;;;;;;;14.70;12.05;;;19.50;94.70;;;;;;4863252;29;20064;-90
2023/05/08 10:37:24;;;;;;;15.25;12.63;;;19.60;95.00;;;;;;4769133;30;20093;-89
2023/05/08 10:42:55;;;;;;;13.05;11.65;;;19.80;94.90;;;;;;4815731;29;20054;-91
2023/05/08 10:45:23;;;;;;;13.52;12.18;;;19.90;94.10;;;;;;4824150;29;20042;-90
2023/05/08 10:48:09;;;;;;;13.85;12.45;;;19.90;93.40;;;;;;4823281;29;20062;-90
2023/05/08 10:50:35;;;;;;;14.63;12.15;;;20.10;93.50;;;;;;4809160;29;20046;-89
2023/05/08 10:53:16;;;;;;;14.05;11.68;;;20.10;93.40;;;;;;4809274;29;20110;-90
2023/05/08 10:55:46;;;;;;;13.73;12.02;;;20.20;92.40;;;;;;4823843;29;20047;-90
2023/05/08 10:58:14;;;;;;;14.13;12.70;;;20.30;93.70;;;;;;4813275;29;20097;-91
2023/05/08 11:00:51;;;;;;;13.50;12.10;;;20.30;93.10;;;;;;4824609;29;20070;-90
2023/05/08 11:03:23;;;;;;;15.40;12.93;;;20.40;92.40;;;;;;4832306;29;20424;-90
2023/05/08 11:05:52;;;;;;;13.90;12.40;;;20.50;92.70;;;;;;4878774;23;20136;-90
2023/05/08 11:08:39;;;;;;;13.43;12.07;;;20.50;93.80;;;;;;4864175;29;20064;-89
2023/05/08 11:11:16;;;;;;;13.85;12.45;;;20.60;94.40;;;;;;4866274;29;20064;-90
2023/05/08 11:13:47;;;;;;;13.55;11.45;;;20.70;95.30;;;;;;4883594;29;20135;-90
2023/05/08 11:16:12;;;;;;;13.77;12.02;;;20.70;93.10;;;;;;4893572;29;20049;-90
2023/05/08 11:19:18;;;;;;;15.15;13.55;;;20.90;94.80;;;;;;4872066;29;20413;-90
2023/05/08 11:25:10;;;;;;;14.95;11.95;;;21.00;93.00;;;;;;4864183;29;20136;-91
2023/05/08 11:27:46;;;;;;;14.43;12.93;;;21.10;92.90;;;;;;4879140;29;20072;-90
2023/05/08 11:30:25;;;;;;;17.25;13.00;;;21.10;93.60;;;;;;4867127;29;20128;-91
2023/05/08 11:33:10;;;;;;;15.55;13.43;;;21.20;92.70;;;;;;4870653;29;20051;-90
2023/05/08 11:35:56;;;;;;;13.93;12.35;;;21.30;92.50;;;;;;4869427;29;20033;-90
2023/05/08 11:38:26;;;;;;;14.48;12.98;;;21.40;91.80;;;;;;4879607;29;20371;-91
2023/05/08 11:40:57;;;;;;;14.95;12.45;;;21.40;93.80;;;;;;4864413;29;20465;-93
2023/05/08 11:43:31;;;;;;;14.40;12.15;;;21.50;93.40;;;;;;4880693;29;20052;-89
2023/05/08 11:46:07;;;;;;;15.60;12.80;;;21.50;92.60;;;;;;4861969;29;20061;-91
2023/05/08 11:48:34;;;;;;;15.93;12.73;;;21.50;91.70;;;;;;4845320;29;20053;-91
2023/05/08 11:51:01;;;;;;;14.88;13.23;;;21.60;92.40;;;;;;4884350;23;20061;-90
2023/05/08 11:53:30;;;;;;;14.10;12.70;;;21.60;92.40;;;;;;4864181;29;20057;-91
2023/05/08 11:55:57;;;;;;;14.38;12.90;;;21.60;92.10;;;;;;4863778;29;20049;-90
2023/05/08 11:59:00;;;;;;;15.05;13.35;;;21.70;91.80;;;;;;4863138;29;20096;-89
2023/05/08 12:15:04;;;;;;;14.68;11.75;;;22.00;94.40;;;;;;4925996;23;20064;-91
2023/05/08 12:17:30;;;;;;;15.02;12.48;;;22.10;94.20;;;;;;4826067;29;20108;-88
2023/05/08 12:20:02;;;;;;;13.75;11.88;;;22.20;91.60;;;;;;4840732;29;20053;-88
2023/05/08 12:22:51;;;;;;;14.48;12.98;;;22.30;91.70;;;;;;4842989;29;20080;-89
2023/05/08 12:25:17;;;;;;;15.60;14.00;;;22.40;93.60;;;;;;4857181;29;20507;-87
2023/05/08 12:27:48;;;;;;;14.07;12.68;;;22.50;91.20;;;;;;4840775;29;20456;-91
2023/05/08 12:41:54;;;;;;;16.88;12.57;;;22.70;94.30;;;;;;3701268;27;20054;-91
2023/05/08 12:44:24;;;;;;;14.65;12.95;;;22.80;93.30;;;;;;4845229;29;20042;-90
2023/05/08 12:46:55;;;;;;;15.93;14.23;;;22.80;91.90;;;;;;4843418;29;20053;-88
2023/05/08 12:49:29;;;;;;;15.50;13.52;;;22.90;92.30;;;;;;4841258;29;20453;-91
2023/05/08 12:52:06;;;;;;;14.52;12.80;;;22.90;93.80;;;;;;4826528;29;20038;-91
2023/05/08 12:54:42;;;;;;;15.27;13.68;;;22.90;94.10;;;;;;4826196;29;20072;-90
2023/05/08 12:57:35;;;;;;;16.15;13.23;;;23.00;94.00;;;;;;4828759;29;20050;-90
2023/05/08 13:00:05;;;;;;;14.75;13.20;;;23.10;92.00;;;;;;4811236;29;20286;-91
2023/05/08 13:02:30;;;;;;;14.38;12.90;;;23.10;93.70;;;;;;4844226;29;20069;-92
2023/05/08 13:04:56;;;;;;;14.82;13.23;;;23.10;95.00;;;;;;4844588;29;20398;-93
2023/05/08 13:07:22;;;;;;;14.27;12.40;;;23.20;94.50;;;;;;4844591;29;20054;-90
2023/05/08 13:10:43;;;;;;;14.63;13.23;;;23.10;92.20;;;;;;4842760;29;20049;-90
2023/05/08 13:13:35;;;;;;;14.73;12.23;;;23.20;93.20;;;;;;4768568;30;20482;-91
2023/05/08 13:16:03;;;;;;;13.68;11.35;;;23.20;91.60;;;;;;4749958;30;20158;-91
2023/05/08 13:18:29;;;;;;;14.77;11.57;;;23.20;90.00;;;;;;4768373;30;20055;-90
2023/05/08 13:20:58;;;;;;;14.27;12.77;;;23.30;89.80;;;;;;4753143;30;20060;-89
2023/05/08 13:24:14;;;;;;;14.27;11.63;;;23.30;93.00;;;;;;4752341;30;20051;-89
2023/05/08 13:26:40;;;;;;;15.75;12.35;;;23.30;91.60;;;;;;4759937;29;20510;-91
2023/05/08 13:29:13;;;;;;;14.00;11.57;;;23.40;92.60;;;;;;4859539;29;20073;-90
2023/05/08 13:31:38;;;;;;;13.55;12.23;;;23.40;92.00;;;;;;4860511;29;20037;-92
2023/05/08 13:34:04;;;;;;;12.88;11.57;;;23.40;93.90;;;;;;4846870;29;20056;-89
2023/05/08 13:37:05;;;;;;;13.73;12.32;;;23.50;93.90;;;;;;4847147;29;20089;-93
2023/05/08 13:39:36;;;;;;;14.43;13.00;;;23.60;94.80;;;;;;4847131;29;20506;-91
2023/05/08 14:07:35;;;;;;;16.00;11.13;;;23.90;94.30;;;;;;5092473;23;20039;-92